sim
Sign-in with your pilot id or email,
or register
Callsign
Passwort

Schedule Details

Flight Number: DLH2453
Departure: Oslo Gardermoen Airport (ENGM) at 10:25
Arrival: Munich Airport (EDDM) at 12:45
Route: Lufthansa Passenger Schedule. Enter filed route here before submitting Pirep.

Weather Information
Getting current METAR information for ENGM 230950Z 17012KT 9999 -SHRA SCT006 BKN012 14/14 Q0997 TEMPO 4000 SHRA BR SCT003 OVC006
Getting current METAR information for EDDM 230950Z 25009KT 5000 -SHRA FEW007 FEW015CB BKN025 15/14 Q1010 RESHRA NOSIG

Schedule Frequency

Route Map